sensor_id;sensor_type;location;lat;lon;timestamp;P1;durP1;ratioP1;P2;durP2;ratioP2
3333;SDS011;1679;50.392;8.008;2024-02-26T00:00:35;1.63;;;1.53;;
3333;SDS011;1679;50.392;8.008;2024-02-26T00:03:02;2.17;;;1.40;;
3333;SDS011;1679;50.392;8.008;2024-02-26T00:05:28;2.47;;;1.47;;
3333;SDS011;1679;50.392;8.008;2024-02-26T00:07:53;1.40;;;1.30;;
3333;SDS011;1679;50.392;8.008;2024-02-26T00:10:19;2.03;;;1.77;;
3333;SDS011;1679;50.392;8.008;2024-02-26T00:12:44;1.60;;;1.50;;
3333;SDS011;1679;50.392;8.008;2024-02-26T00:15:10;1.53;;;1.30;;
3333;SDS011;1679;50.392;8.008;2024-02-26T00:17:36;1.97;;;1.77;;
3333;SDS011;1679;50.392;8.008;2024-02-26T00:20:02;1.90;;;1.80;;
3333;SDS011;1679;50.392;8.008;2024-02-26T00:22:29;1.90;;;1.80;;
3333;SDS011;1679;50.392;8.008;2024-02-26T00:24:55;1.50;;;1.27;;
3333;SDS011;1679;50.392;8.008;2024-02-26T00:27:21;1.93;;;1.73;;
3333;SDS011;1679;50.392;8.008;2024-02-26T00:29:46;2.30;;;1.77;;
3333;SDS011;1679;50.392;8.008;2024-02-26T00:32:12;2.00;;;1.90;;
3333;SDS011;1679;50.392;8.008;2024-02-26T00:34:37;1.67;;;1.57;;
3333;SDS011;1679;50.392;8.008;2024-02-26T00:37:03;1.80;;;1.70;;
3333;SDS011;1679;50.392;8.008;2024-02-26T00:39:29;3.00;;;2.80;;
3333;SDS011;1679;50.392;8.008;2024-02-26T00:41:55;5.93;;;2.00;;
3333;SDS011;1679;50.392;8.008;2024-02-26T00:44:21;3.23;;;1.63;;
3333;SDS011;1679;50.392;8.008;2024-02-26T00:46:46;2.33;;;1.93;;
3333;SDS011;1679;50.392;8.008;2024-02-26T00:49:11;2.70;;;1.57;;
3333;SDS011;1679;50.392;8.008;2024-02-26T00:51:37;1.70;;;1.60;;
3333;SDS011;1679;50.392;8.008;2024-02-26T00:54:02;1.60;;;1.50;;
3333;SDS011;1679;50.392;8.008;2024-02-26T00:56:28;1.60;;;1.50;;
3333;SDS011;1679;50.392;8.008;2024-02-26T00:58:53;3.47;;;1.40;;
3333;SDS011;1679;50.392;8.008;2024-02-26T01:01:19;1.83;;;1.57;;
3333;SDS011;1679;50.392;8.008;2024-02-26T01:03:45;1.40;;;1.30;;
3333;SDS011;1679;50.392;8.008;2024-02-26T01:06:10;1.40;;;1.30;;
3333;SDS011;1679;50.392;8.008;2024-02-26T01:08:36;1.50;;;1.40;;
3333;SDS011;1679;50.392;8.008;2024-02-26T01:11:02;1.30;;;1.17;;
3333;SDS011;1679;50.392;8.008;2024-02-26T01:13:28;2.73;;;1.20;;
3333;SDS011;1679;50.392;8.008;2024-02-26T01:15:54;1.43;;;1.33;;
3333;SDS011;1679;50.392;8.008;2024-02-26T01:18:20;1.50;;;1.40;;
3333;SDS011;1679;50.392;8.008;2024-02-26T01:20:45;1.30;;;1.17;;
3333;SDS011;1679;50.392;8.008;2024-02-26T01:23:11;1.77;;;1.47;;
3333;SDS011;1679;50.392;8.008;2024-02-26T01:25:37;1.70;;;1.60;;
3333;SDS011;1679;50.392;8.008;2024-02-26T01:28:04;1.23;;;1.13;;
3333;SDS011;1679;50.392;8.008;2024-02-26T01:30:30;2.10;;;1.57;;
3333;SDS011;1679;50.392;8.008;2024-02-26T01:32:55;1.50;;;1.40;;
3333;SDS011;1679;50.392;8.008;2024-02-26T01:35:21;4.03;;;1.67;;
3333;SDS011;1679;50.392;8.008;2024-02-26T01:37:46;1.63;;;1.50;;
3333;SDS011;1679;50.392;8.008;2024-02-26T01:40:12;1.63;;;1.53;;
3333;SDS011;1679;50.392;8.008;2024-02-26T01:42:42;1.60;;;1.50;;
3333;SDS011;1679;50.392;8.008;2024-02-26T01:45:09;1.40;;;1.30;;
3333;SDS011;1679;50.392;8.008;2024-02-26T01:47:40;2.83;;;1.77;;
3333;SDS011;1679;50.392;8.008;2024-02-26T01:50:06;1.60;;;1.43;;
3333;SDS011;1679;50.392;8.008;2024-02-26T01:52:33;1.60;;;1.50;;
3333;SDS011;1679;50.392;8.008;2024-02-26T01:54:59;1.73;;;1.63;;
3333;SDS011;1679;50.392;8.008;2024-02-26T01:57:26;3.07;;;1.50;;
3333;SDS011;1679;50.392;8.008;2024-02-26T01:59:52;1.67;;;1.40;;
3333;SDS011;1679;50.392;8.008;2024-02-26T02:02:18;1.67;;;1.40;;
3333;SDS011;1679;50.392;8.008;2024-02-26T02:04:44;1.50;;;1.40;;
3333;SDS011;1679;50.392;8.008;2024-02-26T02:07:09;1.67;;;1.50;;
3333;SDS011;1679;50.392;8.008;2024-02-26T02:09:35;1.73;;;1.50;;
3333;SDS011;1679;50.392;8.008;2024-02-26T02:12:01;1.80;;;1.57;;
3333;SDS011;1679;50.392;8.008;2024-02-26T02:14:27;1.73;;;1.63;;
3333;SDS011;1679;50.392;8.008;2024-02-26T02:16:52;2.43;;;1.63;;
3333;SDS011;1679;50.392;8.008;2024-02-26T02:19:18;1.37;;;1.27;;
3333;SDS011;1679;50.392;8.008;2024-02-26T02:21:43;1.70;;;1.60;;
3333;SDS011;1679;50.392;8.008;2024-02-26T02:24:09;1.50;;;1.40;;
3333;SDS011;1679;50.392;8.008;2024-02-26T02:26:34;1.70;;;1.60;;
3333;SDS011;1679;50.392;8.008;2024-02-26T02:29:00;1.93;;;1.83;;
3333;SDS011;1679;50.392;8.008;2024-02-26T02:31:26;1.80;;;1.70;;
3333;SDS011;1679;50.392;8.008;2024-02-26T02:33:52;4.13;;;1.70;;
3333;SDS011;1679;50.392;8.008;2024-02-26T02:36:19;1.80;;;1.70;;
3333;SDS011;1679;50.392;8.008;2024-02-26T02:38:48;2.00;;;1.90;;
3333;SDS011;1679;50.392;8.008;2024-02-26T02:41:17;1.90;;;1.80;;
3333;SDS011;1679;50.392;8.008;2024-02-26T02:43:44;2.47;;;1.70;;
3333;SDS011;1679;50.392;8.008;2024-02-26T02:46:10;2.23;;;1.90;;
3333;SDS011;1679;50.392;8.008;2024-02-26T02:48:39;2.83;;;1.40;;
3333;SDS011;1679;50.392;8.008;2024-02-26T02:51:06;1.90;;;1.80;;
3333;SDS011;1679;50.392;8.008;2024-02-26T02:53:32;1.87;;;1.77;;
3333;SDS011;1679;50.392;8.008;2024-02-26T02:55:58;3.70;;;2.53;;
3333;SDS011;1679;50.392;8.008;2024-02-26T02:58:23;3.00;;;2.70;;
3333;SDS011;1679;50.392;8.008;2024-02-26T03:00:48;3.43;;;1.97;;
3333;SDS011;1679;50.392;8.008;2024-02-26T03:03:14;2.33;;;2.13;;
3333;SDS011;1679;50.392;8.008;2024-02-26T03:05:39;2.37;;;2.17;;
3333;SDS011;1679;50.392;8.008;2024-02-26T03:08:06;2.00;;;1.90;;
3333;SDS011;1679;50.392;8.008;2024-02-26T03:10:32;2.30;;;2.20;;
3333;SDS011;1679;50.392;8.008;2024-02-26T03:12:57;2.83;;;2.63;;
3333;SDS011;1679;50.392;8.008;2024-02-26T03:15:24;2.10;;;1.90;;
3333;SDS011;1679;50.392;8.008;2024-02-26T03:17:49;2.70;;;2.50;;
3333;SDS011;1679;50.392;8.008;2024-02-26T03:20:15;1.70;;;1.60;;
3333;SDS011;1679;50.392;8.008;2024-02-26T03:22:44;2.90;;;2.37;;
3333;SDS011;1679;50.392;8.008;2024-02-26T03:25:10;2.50;;;2.30;;
3333;SDS011;1679;50.392;8.008;2024-02-26T03:27:36;2.53;;;2.33;;
3333;SDS011;1679;50.392;8.008;2024-02-26T03:30:02;3.73;;;2.40;;
3333;SDS011;1679;50.392;8.008;2024-02-26T03:32:29;2.33;;;2.23;;
3333;SDS011;1679;50.392;8.008;2024-02-26T03:34:54;5.20;;;2.30;;
3333;SDS011;1679;50.392;8.008;2024-02-26T03:37:21;2.03;;;1.93;;
3333;SDS011;1679;50.392;8.008;2024-02-26T03:39:47;2.57;;;2.37;;
3333;SDS011;1679;50.392;8.008;2024-02-26T03:42:14;2.67;;;2.47;;
3333;SDS011;1679;50.392;8.008;2024-02-26T03:44:41;2.50;;;1.97;;
3333;SDS011;1679;50.392;8.008;2024-02-26T03:47:06;2.20;;;2.10;;
3333;SDS011;1679;50.392;8.008;2024-02-26T03:49:34;2.53;;;2.43;;
3333;SDS011;1679;50.392;8.008;2024-02-26T03:52:00;2.00;;;1.90;;
3333;SDS011;1679;50.392;8.008;2024-02-26T03:54:25;3.80;;;2.50;;
3333;SDS011;1679;50.392;8.008;2024-02-26T03:56:52;2.27;;;2.03;;
3333;SDS011;1679;50.392;8.008;2024-02-26T03:59:19;2.90;;;2.70;;
3333;SDS011;1679;50.392;8.008;2024-02-26T04:01:47;3.37;;;2.53;;
3333;SDS011;1679;50.392;8.008;2024-02-26T04:04:13;2.90;;;2.70;;
3333;SDS011;1679;50.392;8.008;2024-02-26T04:06:38;2.27;;;2.17;;
3333;SDS011;1679;50.392;8.008;2024-02-26T04:09:04;2.60;;;2.40;;
3333;SDS011;1679;50.392;8.008;2024-02-26T04:11:29;2.53;;;2.33;;
3333;SDS011;1679;50.392;8.008;2024-02-26T04:13:55;2.83;;;2.60;;
3333;SDS011;1679;50.392;8.008;2024-02-26T04:16:20;2.70;;;2.50;;
3333;SDS011;1679;50.392;8.008;2024-02-26T04:18:45;2.90;;;2.70;;
3333;SDS011;1679;50.392;8.008;2024-02-26T04:21:11;2.67;;;2.47;;
3333;SDS011;1679;50.392;8.008;2024-02-26T04:23:37;4.63;;;2.33;;
3333;SDS011;1679;50.392;8.008;2024-02-26T04:26:04;4.23;;;2.87;;
3333;SDS011;1679;50.392;8.008;2024-02-26T04:28:30;3.10;;;2.90;;
3333;SDS011;1679;50.392;8.008;2024-02-26T04:30:55;5.63;;;2.60;;
3333;SDS011;1679;50.392;8.008;2024-02-26T04:33:21;3.33;;;3.03;;
3333;SDS011;1679;50.392;8.008;2024-02-26T04:35:46;3.70;;;2.73;;
3333;SDS011;1679;50.392;8.008;2024-02-26T04:38:12;2.70;;;2.50;;
3333;SDS011;1679;50.392;8.008;2024-02-26T04:40:38;5.90;;;2.77;;
3333;SDS011;1679;50.392;8.008;2024-02-26T04:43:03;3.23;;;2.70;;
3333;SDS011;1679;50.392;8.008;2024-02-26T04:45:29;3.90;;;3.60;;
3333;SDS011;1679;50.392;8.008;2024-02-26T04:47:54;6.03;;;3.07;;
3333;SDS011;1679;50.392;8.008;2024-02-26T04:50:20;2.90;;;2.70;;
3333;SDS011;1679;50.392;8.008;2024-02-26T04:52:46;3.50;;;3.20;;
3333;SDS011;1679;50.392;8.008;2024-02-26T04:55:14;3.10;;;2.90;;
3333;SDS011;1679;50.392;8.008;2024-02-26T04:57:39;3.07;;;2.77;;
3333;SDS011;1679;50.392;8.008;2024-02-26T05:00:05;3.77;;;3.47;;
3333;SDS011;1679;50.392;8.008;2024-02-26T05:02:31;4.53;;;3.77;;
3333;SDS011;1679;50.392;8.008;2024-02-26T05:05:01;4.90;;;4.10;;
3333;SDS011;1679;50.392;8.008;2024-02-26T05:07:27;3.83;;;3.47;;
3333;SDS011;1679;50.392;8.008;2024-02-26T05:09:53;3.77;;;3.47;;
3333;SDS011;1679;50.392;8.008;2024-02-26T05:12:18;4.30;;;3.90;;
3333;SDS011;1679;50.392;8.008;2024-02-26T05:14:44;4.23;;;3.50;;
3333;SDS011;1679;50.392;8.008;2024-02-26T05:17:10;5.33;;;3.87;;
3333;SDS011;1679;50.392;8.008;2024-02-26T05:19:36;3.53;;;3.23;;
3333;SDS011;1679;50.392;8.008;2024-02-26T05:22:01;11.13;;;4.67;;
3333;SDS011;1679;50.392;8.008;2024-02-26T05:24:28;4.00;;;3.60;;
3333;SDS011;1679;50.392;8.008;2024-02-26T05:26:54;4.90;;;4.13;;
3333;SDS011;1679;50.392;8.008;2024-02-26T05:29:20;3.53;;;3.20;;
3333;SDS011;1679;50.392;8.008;2024-02-26T05:31:46;6.27;;;3.63;;
3333;SDS011;1679;50.392;8.008;2024-02-26T05:34:11;3.93;;;3.60;;
3333;SDS011;1679;50.392;8.008;2024-02-26T05:36:38;4.47;;;3.43;;
3333;SDS011;1679;50.392;8.008;2024-02-26T05:39:04;4.20;;;3.80;;
3333;SDS011;1679;50.392;8.008;2024-02-26T05:41:30;5.03;;;3.83;;
3333;SDS011;1679;50.392;8.008;2024-02-26T05:43:55;4.23;;;3.40;;
3333;SDS011;1679;50.392;8.008;2024-02-26T05:46:21;4.23;;;3.53;;
3333;SDS011;1679;50.392;8.008;2024-02-26T05:48:47;3.60;;;3.30;;
3333;SDS011;1679;50.392;8.008;2024-02-26T05:51:14;4.40;;;3.07;;
3333;SDS011;1679;50.392;8.008;2024-02-26T05:53:41;3.60;;;3.30;;
3333;SDS011;1679;50.392;8.008;2024-02-26T05:56:08;5.17;;;3.60;;
3333;SDS011;1679;50.392;8.008;2024-02-26T05:58:33;3.97;;;3.60;;
3333;SDS011;1679;50.392;8.008;2024-02-26T06:00:59;3.77;;;3.20;;
3333;SDS011;1679;50.392;8.008;2024-02-26T06:03:27;4.00;;;3.03;;
3333;SDS011;1679;50.392;8.008;2024-02-26T06:05:54;5.80;;;3.00;;
3333;SDS011;1679;50.392;8.008;2024-02-26T06:08:20;3.50;;;2.93;;
3333;SDS011;1679;50.392;8.008;2024-02-26T06:10:46;3.60;;;3.30;;
3333;SDS011;1679;50.392;8.008;2024-02-26T06:13:12;3.07;;;2.70;;
3333;SDS011;1679;50.392;8.008;2024-02-26T06:15:37;3.57;;;3.27;;
3333;SDS011;1679;50.392;8.008;2024-02-26T06:18:03;5.20;;;3.43;;
3333;SDS011;1679;50.392;8.008;2024-02-26T06:20:29;3.70;;;3.37;;
3333;SDS011;1679;50.392;8.008;2024-02-26T06:22:54;3.30;;;2.77;;
3333;SDS011;1679;50.392;8.008;2024-02-26T06:25:20;5.43;;;3.07;;
3333;SDS011;1679;50.392;8.008;2024-02-26T06:27:45;3.87;;;3.50;;
3333;SDS011;1679;50.392;8.008;2024-02-26T06:30:11;3.70;;;3.37;;
3333;SDS011;1679;50.392;8.008;2024-02-26T06:32:37;3.67;;;3.37;;
3333;SDS011;1679;50.392;8.008;2024-02-26T06:35:02;3.73;;;3.20;;
3333;SDS011;1679;50.392;8.008;2024-02-26T06:37:34;3.67;;;3.33;;
3333;SDS011;1679;50.392;8.008;2024-02-26T06:40:00;3.83;;;3.50;;
3333;SDS011;1679;50.392;8.008;2024-02-26T06:42:28;3.47;;;3.07;;
3333;SDS011;1679;50.392;8.008;2024-02-26T06:44:55;6.43;;;4.13;;
3333;SDS011;1679;50.392;8.008;2024-02-26T06:47:20;6.50;;;3.40;;
3333;SDS011;1679;50.392;8.008;2024-02-26T06:49:46;7.17;;;4.07;;
3333;SDS011;1679;50.392;8.008;2024-02-26T06:52:11;3.73;;;3.40;;
3333;SDS011;1679;50.392;8.008;2024-02-26T06:54:37;3.67;;;2.77;;
3333;SDS011;1679;50.392;8.008;2024-02-26T06:57:03;6.77;;;3.40;;
3333;SDS011;1679;50.392;8.008;2024-02-26T06:59:29;4.60;;;3.67;;
3333;SDS011;1679;50.392;8.008;2024-02-26T07:01:54;3.73;;;3.43;;
3333;SDS011;1679;50.392;8.008;2024-02-26T07:04:20;4.63;;;3.60;;
3333;SDS011;1679;50.392;8.008;2024-02-26T07:06:45;3.60;;;3.07;;
3333;SDS011;1679;50.392;8.008;2024-02-26T07:09:12;3.53;;;3.23;;
3333;SDS011;1679;50.392;8.008;2024-02-26T07:11:38;3.57;;;3.27;;
3333;SDS011;1679;50.392;8.008;2024-02-26T07:14:10;6.13;;;3.33;;
3333;SDS011;1679;50.392;8.008;2024-02-26T07:16:37;4.40;;;4.00;;
3333;SDS011;1679;50.392;8.008;2024-02-26T07:19:02;5.73;;;3.87;;
3333;SDS011;1679;50.392;8.008;2024-02-26T07:21:28;4.30;;;3.70;;
3333;SDS011;1679;50.392;8.008;2024-02-26T07:23:54;5.23;;;4.67;;
3333;SDS011;1679;50.392;8.008;2024-02-26T07:26:20;5.30;;;4.80;;
3333;SDS011;1679;50.392;8.008;2024-02-26T07:28:46;5.00;;;4.50;;
3333;SDS011;1679;50.392;8.008;2024-02-26T07:31:12;5.27;;;4.40;;
3333;SDS011;1679;50.392;8.008;2024-02-26T07:33:38;4.47;;;4.07;;
3333;SDS011;1679;50.392;8.008;2024-02-26T07:36:05;4.43;;;4.03;;
3333;SDS011;1679;50.392;8.008;2024-02-26T07:38:30;9.90;;;4.40;;
3333;SDS011;1679;50.392;8.008;2024-02-26T07:40:56;5.50;;;4.60;;
3333;SDS011;1679;50.392;8.008;2024-02-26T07:43:23;6.70;;;4.83;;
3333;SDS011;1679;50.392;8.008;2024-02-26T07:45:48;5.63;;;4.40;;
3333;SDS011;1679;50.392;8.008;2024-02-26T07:48:15;6.20;;;4.60;;
3333;SDS011;1679;50.392;8.008;2024-02-26T07:50:41;4.83;;;4.40;;
3333;SDS011;1679;50.392;8.008;2024-02-26T07:53:07;6.60;;;5.27;;
3333;SDS011;1679;50.392;8.008;2024-02-26T07:55:32;4.97;;;4.53;;
3333;SDS011;1679;50.392;8.008;2024-02-26T07:57:58;4.47;;;4.07;;
3333;SDS011;1679;50.392;8.008;2024-02-26T08:00:25;5.60;;;4.70;;
3333;SDS011;1679;50.392;8.008;2024-02-26T08:02:50;5.03;;;4.53;;
3333;SDS011;1679;50.392;8.008;2024-02-26T08:05:16;5.03;;;4.67;;
3333;SDS011;1679;50.392;8.008;2024-02-26T08:07:42;5.73;;;3.93;;
3333;SDS011;1679;50.392;8.008;2024-02-26T08:10:09;4.97;;;4.50;;
3333;SDS011;1679;50.392;8.008;2024-02-26T08:12:35;6.43;;;4.30;;
3333;SDS011;1679;50.392;8.008;2024-02-26T08:15:01;4.60;;;4.20;;
3333;SDS011;1679;50.392;8.008;2024-02-26T08:17:27;4.37;;;3.97;;
3333;SDS011;1679;50.392;8.008;2024-02-26T08:19:54;13.03;;;5.37;;
3333;SDS011;1679;50.392;8.008;2024-02-26T08:22:19;6.00;;;3.57;;
3333;SDS011;1679;50.392;8.008;2024-02-26T08:24:45;6.53;;;3.90;;
3333;SDS011;1679;50.392;8.008;2024-02-26T08:27:11;8.83;;;4.70;;
3333;SDS011;1679;50.392;8.008;2024-02-26T08:29:36;5.30;;;4.00;;
3333;SDS011;1679;50.392;8.008;2024-02-26T08:32:01;5.87;;;4.10;;
3333;SDS011;1679;50.392;8.008;2024-02-26T08:34:27;4.70;;;4.20;;
3333;SDS011;1679;50.392;8.008;2024-02-26T08:36:53;5.37;;;4.20;;
3333;SDS011;1679;50.392;8.008;2024-02-26T08:39:18;3.90;;;3.50;;
3333;SDS011;1679;50.392;8.008;2024-02-26T08:41:44;8.10;;;4.30;;
3333;SDS011;1679;50.392;8.008;2024-02-26T08:44:10;6.30;;;4.03;;
3333;SDS011;1679;50.392;8.008;2024-02-26T08:46:36;5.20;;;4.40;;
3333;SDS011;1679;50.392;8.008;2024-02-26T08:49:02;4.67;;;3.83;;
3333;SDS011;1679;50.392;8.008;2024-02-26T08:51:27;5.30;;;4.80;;
3333;SDS011;1679;50.392;8.008;2024-02-26T08:53:54;7.90;;;4.07;;
3333;SDS011;1679;50.392;8.008;2024-02-26T08:56:21;4.90;;;4.50;;
3333;SDS011;1679;50.392;8.008;2024-02-26T08:58:48;5.17;;;4.60;;
3333;SDS011;1679;50.392;8.008;2024-02-26T09:01:18;4.03;;;3.70;;
3333;SDS011;1679;50.392;8.008;2024-02-26T09:03:44;6.37;;;4.17;;
3333;SDS011;1679;50.392;8.008;2024-02-26T09:06:09;7.43;;;4.90;;
3333;SDS011;1679;50.392;8.008;2024-02-26T09:08:36;7.53;;;4.80;;
3333;SDS011;1679;50.392;8.008;2024-02-26T09:11:02;5.30;;;4.60;;
3333;SDS011;1679;50.392;8.008;2024-02-26T09:13:28;5.63;;;4.50;;
3333;SDS011;1679;50.392;8.008;2024-02-26T09:15:55;6.23;;;4.70;;
3333;SDS011;1679;50.392;8.008;2024-02-26T09:18:21;6.57;;;5.57;;
3333;SDS011;1679;50.392;8.008;2024-02-26T09:20:47;10.90;;;4.40;;
3333;SDS011;1679;50.392;8.008;2024-02-26T09:23:12;6.10;;;4.87;;
3333;SDS011;1679;50.392;8.008;2024-02-26T09:25:38;6.33;;;5.00;;
3333;SDS011;1679;50.392;8.008;2024-02-26T09:28:04;6.20;;;5.27;;
3333;SDS011;1679;50.392;8.008;2024-02-26T09:30:31;9.77;;;5.40;;
3333;SDS011;1679;50.392;8.008;2024-02-26T09:32:56;11.63;;;6.77;;
3333;SDS011;1679;50.392;8.008;2024-02-26T09:35:22;8.40;;;6.00;;
3333;SDS011;1679;50.392;8.008;2024-02-26T09:37:48;7.00;;;5.30;;
3333;SDS011;1679;50.392;8.008;2024-02-26T09:40:15;10.53;;;7.37;;
3333;SDS011;1679;50.392;8.008;2024-02-26T09:42:43;6.00;;;5.40;;
3333;SDS011;1679;50.392;8.008;2024-02-26T09:45:18;6.00;;;5.07;;
3333;SDS011;1679;50.392;8.008;2024-02-26T09:47:44;5.33;;;4.87;;
3333;SDS011;1679;50.392;8.008;2024-02-26T09:50:12;5.40;;;4.70;;
3333;SDS011;1679;50.392;8.008;2024-02-26T09:52:39;5.23;;;4.40;;
3333;SDS011;1679;50.392;8.008;2024-02-26T09:55:07;5.30;;;4.80;;
3333;SDS011;1679;50.392;8.008;2024-02-26T09:57:35;5.90;;;4.63;;
3333;SDS011;1679;50.392;8.008;2024-02-26T10:00:02;5.90;;;5.10;;
3333;SDS011;1679;50.392;8.008;2024-02-26T10:02:32;4.70;;;4.30;;
3333;SDS011;1679;50.392;8.008;2024-02-26T10:04:59;8.13;;;4.70;;
3333;SDS011;1679;50.392;8.008;2024-02-26T10:07:29;7.73;;;5.40;;
3333;SDS011;1679;50.392;8.008;2024-02-26T10:09:55;8.27;;;5.80;;
3333;SDS011;1679;50.392;8.008;2024-02-26T10:12:21;6.47;;;5.87;;
3333;SDS011;1679;50.392;8.008;2024-02-26T10:14:47;5.33;;;4.77;;
3333;SDS011;1679;50.392;8.008;2024-02-26T10:17:12;4.90;;;4.50;;
3333;SDS011;1679;50.392;8.008;2024-02-26T10:19:38;7.57;;;5.80;;
3333;SDS011;1679;50.392;8.008;2024-02-26T10:22:03;7.00;;;4.87;;
3333;SDS011;1679;50.392;8.008;2024-02-26T10:24:29;7.50;;;5.33;;
3333;SDS011;1679;50.392;8.008;2024-02-26T10:26:56;9.37;;;5.67;;
3333;SDS011;1679;50.392;8.008;2024-02-26T10:29:23;5.90;;;5.40;;
3333;SDS011;1679;50.392;8.008;2024-02-26T10:31:50;6.33;;;5.60;;
3333;SDS011;1679;50.392;8.008;2024-02-26T10:34:16;8.50;;;6.30;;
3333;SDS011;1679;50.392;8.008;2024-02-26T10:36:42;9.67;;;5.90;;
3333;SDS011;1679;50.392;8.008;2024-02-26T10:39:09;7.20;;;5.50;;
3333;SDS011;1679;50.392;8.008;2024-02-26T10:41:36;8.63;;;5.80;;
3333;SDS011;1679;50.392;8.008;2024-02-26T10:44:02;7.87;;;6.43;;
3333;SDS011;1679;50.392;8.008;2024-02-26T10:46:28;6.53;;;5.67;;
3333;SDS011;1679;50.392;8.008;2024-02-26T10:48:54;15.77;;;8.80;;
3333;SDS011;1679;50.392;8.008;2024-02-26T10:51:22;10.07;;;7.00;;
3333;SDS011;1679;50.392;8.008;2024-02-26T10:53:58;14.33;;;8.67;;
3333;SDS011;1679;50.392;8.008;2024-02-26T10:56:27;8.87;;;5.80;;
3333;SDS011;1679;50.392;8.008;2024-02-26T10:58:54;13.73;;;7.23;;
3333;SDS011;1679;50.392;8.008;2024-02-26T11:01:21;12.60;;;7.40;;
3333;SDS011;1679;50.392;8.008;2024-02-26T11:03:51;7.03;;;6.33;;
3333;SDS011;1679;50.392;8.008;2024-02-26T11:06:24;8.57;;;5.70;;
3333;SDS011;1679;50.392;8.008;2024-02-26T11:08:51;7.30;;;6.40;;
3333;SDS011;1679;50.392;8.008;2024-02-26T11:11:19;7.63;;;5.77;;
3333;SDS011;1679;50.392;8.008;2024-02-26T11:13:48;8.40;;;6.80;;
3333;SDS011;1679;50.392;8.008;2024-02-26T11:16:20;8.80;;;7.30;;
3333;SDS011;1679;50.392;8.008;2024-02-26T11:18:47;9.43;;;6.50;;
3333;SDS011;1679;50.392;8.008;2024-02-26T11:21:17;9.87;;;7.17;;
3333;SDS011;1679;50.392;8.008;2024-02-26T11:23:45;11.93;;;5.83;;
3333;SDS011;1679;50.392;8.008;2024-02-26T11:26:11;7.80;;;7.00;;
3333;SDS011;1679;50.392;8.008;2024-02-26T11:28:38;9.00;;;7.57;;
3333;SDS011;1679;50.392;8.008;2024-02-26T11:31:05;8.73;;;7.00;;
3333;SDS011;1679;50.392;8.008;2024-02-26T11:33:32;9.30;;;7.27;;
3333;SDS011;1679;50.392;8.008;2024-02-26T11:36:00;6.57;;;6.00;;
3333;SDS011;1679;50.392;8.008;2024-02-26T11:38:27;8.50;;;6.63;;
3333;SDS011;1679;50.392;8.008;2024-02-26T11:40:54;7.07;;;6.37;;
3333;SDS011;1679;50.392;8.008;2024-02-26T11:46:41;9.00;;;6.27;;
3333;SDS011;1679;50.392;8.008;2024-02-26T11:51:54;15.33;;;9.80;;
3333;SDS011;1679;50.392;8.008;2024-02-26T11:57:20;15.63;;;8.50;;
3333;SDS011;1679;50.392;8.008;2024-02-26T11:59:48;11.13;;;7.40;;
3333;SDS011;1679;50.392;8.008;2024-02-26T12:05:13;13.90;;;10.20;;
3333;SDS011;1679;50.392;8.008;2024-02-26T12:07:54;11.20;;;8.47;;
3333;SDS011;1679;50.392;8.008;2024-02-26T12:10:41;13.60;;;9.87;;
3333;SDS011;1679;50.392;8.008;2024-02-26T12:13:13;10.97;;;9.90;;
3333;SDS011;1679;50.392;8.008;2024-02-26T12:15:41;12.37;;;10.40;;
3333;SDS011;1679;50.392;8.008;2024-02-26T12:18:17;11.80;;;8.67;;
3333;SDS011;1679;50.392;8.008;2024-02-26T12:20:45;7.43;;;6.43;;
3333;SDS011;1679;50.392;8.008;2024-02-26T12:23:15;7.00;;;6.20;;
3333;SDS011;1679;50.392;8.008;2024-02-26T12:25:44;7.33;;;6.63;;
3333;SDS011;1679;50.392;8.008;2024-02-26T12:28:13;12.40;;;7.50;;
3333;SDS011;1679;50.392;8.008;2024-02-26T12:30:39;8.83;;;7.60;;
3333;SDS011;1679;50.392;8.008;2024-02-26T12:33:04;8.97;;;7.53;;
3333;SDS011;1679;50.392;8.008;2024-02-26T12:35:31;9.57;;;8.03;;
3333;SDS011;1679;50.392;8.008;2024-02-26T12:37:57;10.20;;;8.70;;
3333;SDS011;1679;50.392;8.008;2024-02-26T12:40:25;10.83;;;7.20;;
3333;SDS011;1679;50.392;8.008;2024-02-26T12:42:55;7.80;;;7.00;;
3333;SDS011;1679;50.392;8.008;2024-02-26T12:45:22;6.67;;;5.50;;
3333;SDS011;1679;50.392;8.008;2024-02-26T12:47:48;9.07;;;7.83;;
3333;SDS011;1679;50.392;8.008;2024-02-26T12:50:16;8.30;;;6.67;;
3333;SDS011;1679;50.392;8.008;2024-02-26T12:52:46;7.60;;;6.20;;
3333;SDS011;1679;50.392;8.008;2024-02-26T12:55:14;7.50;;;6.50;;
3333;SDS011;1679;50.392;8.008;2024-02-26T12:57:41;8.33;;;7.30;;
3333;SDS011;1679;50.392;8.008;2024-02-26T13:00:12;9.30;;;7.27;;
3333;SDS011;1679;50.392;8.008;2024-02-26T13:02:40;7.47;;;6.77;;
3333;SDS011;1679;50.392;8.008;2024-02-26T13:05:07;9.50;;;6.07;;
3333;SDS011;1679;50.392;8.008;2024-02-26T13:07:34;8.10;;;5.77;;
3333;SDS011;1679;50.392;8.008;2024-02-26T13:10:05;7.00;;;6.00;;
3333;SDS011;1679;50.392;8.008;2024-02-26T13:12:32;5.97;;;5.43;;
3333;SDS011;1679;50.392;8.008;2024-02-26T13:15:00;5.80;;;5.30;;
3333;SDS011;1679;50.392;8.008;2024-02-26T13:17:31;5.67;;;5.17;;
3333;SDS011;1679;50.392;8.008;2024-02-26T13:19:56;7.23;;;5.97;;
3333;SDS011;1679;50.392;8.008;2024-02-26T13:22:22;7.07;;;6.27;;
3333;SDS011;1679;50.392;8.008;2024-02-26T13:24:55;5.60;;;5.20;;
3333;SDS011;1679;50.392;8.008;2024-02-26T13:27:25;6.67;;;5.77;;
3333;SDS011;1679;50.392;8.008;2024-02-26T13:30:10;5.70;;;5.13;;
3333;SDS011;1679;50.392;8.008;2024-02-26T13:32:38;6.20;;;5.33;;
3333;SDS011;1679;50.392;8.008;2024-02-26T13:35:09;5.60;;;5.10;;
3333;SDS011;1679;50.392;8.008;2024-02-26T13:37:36;6.50;;;5.13;;
3333;SDS011;1679;50.392;8.008;2024-02-26T13:40:06;5.83;;;5.23;;
3333;SDS011;1679;50.392;8.008;2024-02-26T13:42:35;5.33;;;4.77;;
3333;SDS011;1679;50.392;8.008;2024-02-26T13:45:01;5.23;;;4.83;;
3333;SDS011;1679;50.392;8.008;2024-02-26T13:47:31;5.53;;;4.30;;
3333;SDS011;1679;50.392;8.008;2024-02-26T13:49:57;4.77;;;4.37;;
3333;SDS011;1679;50.392;8.008;2024-02-26T13:52:23;5.10;;;4.60;;
3333;SDS011;1679;50.392;8.008;2024-02-26T13:54:50;6.13;;;5.63;;
3333;SDS011;1679;50.392;8.008;2024-02-26T13:57:16;14.33;;;4.53;;
3333;SDS011;1679;50.392;8.008;2024-02-26T13:59:43;4.67;;;4.23;;
3333;SDS011;1679;50.392;8.008;2024-02-26T14:02:09;5.03;;;4.53;;
3333;SDS011;1679;50.392;8.008;2024-02-26T14:04:37;5.00;;;3.90;;
3333;SDS011;1679;50.392;8.008;2024-02-26T14:07:03;4.10;;;3.70;;
3333;SDS011;1679;50.392;8.008;2024-02-26T14:09:29;4.40;;;4.00;;
3333;SDS011;1679;50.392;8.008;2024-02-26T14:11:55;4.00;;;3.60;;
3333;SDS011;1679;50.392;8.008;2024-02-26T14:14:20;4.87;;;4.47;;
3333;SDS011;1679;50.392;8.008;2024-02-26T14:16:46;4.10;;;3.70;;
3333;SDS011;1679;50.392;8.008;2024-02-26T14:19:12;6.03;;;5.33;;
3333;SDS011;1679;50.392;8.008;2024-02-26T14:21:39;7.93;;;5.07;;
3333;SDS011;1679;50.392;8.008;2024-02-26T14:24:04;4.70;;;4.20;;
3333;SDS011;1679;50.392;8.008;2024-02-26T14:26:30;5.93;;;5.30;;
3333;SDS011;1679;50.392;8.008;2024-02-26T14:28:56;4.60;;;4.20;;
3333;SDS011;1679;50.392;8.008;2024-02-26T14:31:22;5.13;;;4.63;;
3333;SDS011;1679;50.392;8.008;2024-02-26T14:33:49;4.43;;;4.07;;
3333;SDS011;1679;50.392;8.008;2024-02-26T14:36:17;5.43;;;4.80;;
3333;SDS011;1679;50.392;8.008;2024-02-26T14:38:43;4.03;;;3.67;;
3333;SDS011;1679;50.392;8.008;2024-02-26T14:41:08;5.10;;;4.23;;
3333;SDS011;1679;50.392;8.008;2024-02-26T14:43:35;5.60;;;3.87;;
3333;SDS011;1679;50.392;8.008;2024-02-26T14:46:01;3.40;;;3.10;;
3333;SDS011;1679;50.392;8.008;2024-02-26T14:48:27;4.40;;;4.00;;
3333;SDS011;1679;50.392;8.008;2024-02-26T14:50:54;4.83;;;3.70;;
3333;SDS011;1679;50.392;8.008;2024-02-26T14:53:20;3.80;;;3.50;;
3333;SDS011;1679;50.392;8.008;2024-02-26T14:55:45;5.20;;;4.70;;
3333;SDS011;1679;50.392;8.008;2024-02-26T14:58:11;5.03;;;4.53;;
3333;SDS011;1679;50.392;8.008;2024-02-26T15:00:38;4.40;;;4.00;;
3333;SDS011;1679;50.392;8.008;2024-02-26T15:03:04;4.87;;;3.90;;
3333;SDS011;1679;50.392;8.008;2024-02-26T15:05:30;3.40;;;3.20;;
3333;SDS011;1679;50.392;8.008;2024-02-26T15:07:56;4.00;;;3.67;;
3333;SDS011;1679;50.392;8.008;2024-02-26T15:10:22;3.87;;;3.57;;
3333;SDS011;1679;50.392;8.008;2024-02-26T15:12:47;4.23;;;3.60;;
3333;SDS011;1679;50.392;8.008;2024-02-26T15:15:13;5.17;;;4.10;;
3333;SDS011;1679;50.392;8.008;2024-02-26T15:17:39;5.23;;;3.87;;
3333;SDS011;1679;50.392;8.008;2024-02-26T15:20:04;3.83;;;3.43;;
3333;SDS011;1679;50.392;8.008;2024-02-26T15:22:32;4.30;;;3.90;;